createdAt,value
2023-02-02T00:00:36.196Z,16.80
2023-02-02T00:01:36.164Z,17.40
2023-02-02T00:02:36.210Z,13.80
2023-02-02T00:03:36.139Z,22.90
2023-02-02T00:04:36.146Z,22.80
2023-02-02T00:05:36.100Z,18.70
2023-02-02T00:06:36.108Z,23.30
2023-02-02T00:07:36.090Z,23.90
2023-02-02T00:08:36.076Z,15.40
2023-02-02T00:09:36.072Z,19.60
2023-02-02T00:10:36.107Z,16.20
2023-02-02T00:11:36.044Z,22.80
2023-02-02T00:12:36.018Z,23.20
2023-02-02T00:13:36.019Z,22.70
2023-02-02T00:14:36.011Z,19.20
2023-02-02T00:15:35.987Z,16.60
2023-02-02T00:16:35.984Z,19.70
2023-02-02T00:17:35.973Z,18.70
2023-02-02T00:18:35.965Z,18.00
2023-02-02T00:19:35.937Z,20.70
2023-02-02T00:20:35.923Z,17.00
2023-02-02T00:21:35.891Z,21.90
2023-02-02T00:22:35.891Z,15.70
2023-02-02T00:23:35.886Z,15.50
2023-02-02T00:24:35.864Z,13.70
2023-02-02T00:25:35.879Z,15.30
2023-02-02T00:26:35.849Z,17.50
2023-02-02T00:27:35.829Z,17.60
2023-02-02T00:28:35.833Z,15.00
2023-02-02T00:29:35.831Z,16.30
2023-02-02T00:30:35.806Z,16.40
2023-02-02T00:31:35.817Z,17.90
2023-02-02T00:32:35.760Z,19.50
2023-02-02T00:33:35.781Z,17.80
2023-02-02T00:34:35.733Z,20.80
2023-02-02T00:35:35.734Z,20.10
2023-02-02T00:36:35.714Z,14.90
2023-02-02T00:37:35.709Z,18.30
2023-02-02T00:38:35.688Z,21.60
2023-02-02T00:39:35.654Z,15.10
2023-02-02T00:40:35.672Z,16.80
2023-02-02T00:41:35.651Z,23.00
2023-02-02T00:42:35.627Z,12.30
2023-02-02T00:43:35.626Z,19.60
2023-02-02T00:44:35.598Z,21.80
2023-02-02T00:45:35.619Z,20.50
2023-02-02T00:46:35.583Z,20.30
2023-02-02T00:47:35.567Z,13.10
2023-02-02T00:48:35.564Z,16.20
2023-02-02T00:49:35.529Z,12.90
2023-02-02T00:50:35.540Z,17.10
2023-02-02T00:51:35.497Z,17.30
2023-02-02T00:52:35.493Z,20.10
2023-02-02T00:53:35.539Z,19.00
2023-02-02T00:54:35.459Z,14.90
2023-02-02T00:55:35.444Z,18.40
2023-02-02T00:56:35.462Z,15.60
2023-02-02T00:57:35.422Z,15.10
2023-02-02T00:58:35.455Z,15.50
2023-02-02T00:59:35.405Z,21.40
2023-02-02T01:00:58.984Z,20.20
2023-02-02T01:01:35.380Z,19.30
2023-02-02T01:02:35.357Z,17.70
2023-02-02T01:03:35.354Z,16.30
2023-02-02T01:04:35.336Z,18.80
2023-02-02T01:05:35.314Z,19.90
2023-02-02T01:06:35.321Z,25.30
2023-02-02T01:07:35.294Z,17.80
2023-02-02T01:08:35.341Z,19.50
2023-02-02T01:09:35.277Z,14.90
2023-02-02T01:10:35.285Z,12.10
2023-02-02T01:11:35.255Z,18.80
2023-02-02T01:12:35.245Z,15.40
2023-02-02T01:13:35.204Z,13.30
2023-02-02T01:14:35.244Z,21.20
2023-02-02T01:15:35.180Z,22.10
2023-02-02T01:16:35.251Z,20.20
2023-02-02T01:17:35.193Z,18.10
2023-02-02T01:18:35.161Z,18.60
2023-02-02T01:19:35.151Z,16.90
2023-02-02T01:20:35.148Z,16.80
2023-02-02T01:21:35.107Z,15.50
2023-02-02T01:22:35.133Z,20.40
2023-02-02T01:23:35.079Z,20.50
2023-02-02T01:24:35.071Z,18.50
2023-02-02T01:25:35.145Z,21.30
2023-02-02T01:26:35.054Z,19.60
2023-02-02T01:27:35.027Z,20.90
2023-02-02T01:28:35.030Z,23.30
2023-02-02T01:29:35.013Z,17.90
2023-02-02T01:30:35.011Z,16.90
2023-02-02T01:31:35.003Z,22.00
2023-02-02T01:32:34.977Z,18.60
2023-02-02T01:33:34.957Z,20.20
2023-02-02T01:34:34.955Z,20.70
2023-02-02T01:35:34.914Z,20.50
2023-02-02T01:36:34.907Z,19.60
2023-02-02T01:37:34.899Z,16.90
2023-02-02T01:38:34.907Z,16.60
2023-02-02T01:39:34.886Z,22.10
2023-02-02T01:40:34.860Z,19.90
2023-02-02T01:41:34.889Z,21.00
2023-02-02T01:42:34.852Z,18.90
2023-02-02T01:43:34.809Z,16.00
2023-02-02T01:44:34.825Z,11.50
2023-02-02T01:45:34.823Z,19.00
2023-02-02T01:46:34.782Z,20.10
2023-02-02T01:47:34.765Z,16.70
2023-02-02T01:48:34.752Z,18.30
2023-02-02T01:49:34.747Z,14.00
2023-02-02T01:50:34.728Z,22.00
2023-02-02T01:51:34.721Z,18.80
2023-02-02T01:52:34.716Z,18.40
2023-02-02T01:53:34.704Z,17.40
2023-02-02T01:54:34.686Z,16.30
2023-02-02T01:55:34.670Z,18.50
2023-02-02T01:56:34.658Z,22.00
2023-02-02T01:57:34.642Z,17.30
2023-02-02T01:58:34.615Z,18.70
2023-02-02T01:59:34.601Z,20.30
2023-02-02T02:00:34.586Z,16.40
2023-02-02T02:01:34.651Z,13.50
2023-02-02T02:02:34.669Z,17.00
2023-02-02T02:03:34.543Z,18.50
2023-02-02T02:04:34.560Z,15.60
2023-02-02T02:05:34.519Z,14.90
2023-02-02T02:06:34.529Z,19.70
2023-02-02T02:07:34.501Z,14.60
2023-02-02T02:08:34.488Z,17.40
2023-02-02T02:09:34.474Z,22.30
2023-02-02T02:10:34.472Z,20.00
2023-02-02T02:11:34.476Z,21.00
2023-02-02T02:12:34.435Z,16.90
2023-02-02T02:13:34.439Z,15.80
2023-02-02T02:14:34.412Z,22.30
2023-02-02T02:15:34.390Z,19.80
2023-02-02T02:16:34.428Z,18.60
2023-02-02T02:17:34.373Z,21.10
2023-02-02T02:18:34.385Z,21.80
2023-02-02T02:19:34.379Z,15.70
2023-02-02T02:20:34.333Z,13.90
2023-02-02T02:21:34.312Z,17.50
2023-02-02T02:22:34.307Z,12.70
2023-02-02T02:23:34.302Z,23.70
2023-02-02T02:24:34.436Z,19.10
2023-02-02T02:25:34.280Z,25.50
2023-02-02T02:26:34.336Z,26.10
2023-02-02T02:27:34.235Z,22.90
2023-02-02T02:28:34.223Z,14.60
2023-02-02T02:29:34.201Z,17.50
2023-02-02T02:30:34.280Z,24.20
2023-02-02T02:31:34.304Z,14.90
2023-02-02T02:32:34.197Z,17.20
2023-02-02T02:33:34.165Z,19.40
2023-02-02T02:34:34.175Z,20.20
2023-02-02T02:35:34.142Z,17.50
2023-02-02T02:36:34.139Z,16.30
2023-02-02T02:37:34.138Z,17.50
2023-02-02T02:38:34.098Z,26.50
2023-02-02T02:39:34.090Z,22.00
2023-02-02T02:40:34.081Z,22.90
2023-02-02T02:41:34.054Z,17.20
2023-02-02T02:42:34.041Z,13.80
2023-02-02T02:43:34.021Z,16.30
2023-02-02T02:44:34.035Z,16.90
2023-02-02T02:45:34.005Z,18.70
2023-02-02T02:46:34.030Z,17.90
2023-02-02T02:47:33.975Z,18.80
2023-02-02T02:48:33.970Z,16.40
2023-02-02T02:49:33.943Z,17.80
2023-02-02T02:50:33.934Z,20.30
2023-02-02T02:51:34.042Z,24.50
2023-02-02T02:52:33.905Z,15.30
2023-02-02T02:53:33.892Z,21.20
2023-02-02T02:54:33.888Z,17.00
2023-02-02T02:55:33.875Z,15.90
2023-02-02T02:56:33.934Z,13.40
2023-02-02T02:57:33.866Z,17.40
2023-02-02T02:58:33.835Z,15.50
2023-02-02T02:59:33.838Z,15.70
2023-02-02T03:00:33.805Z,16.90
2023-02-02T03:01:33.794Z,20.50
2023-02-02T03:02:33.830Z,15.70
2023-02-02T03:03:33.802Z,14.10
2023-02-02T03:04:33.776Z,13.40
2023-02-02T03:05:33.731Z,14.90
2023-02-02T03:06:33.759Z,17.40
2023-02-02T03:07:33.728Z,24.10
2023-02-02T03:08:33.723Z,14.90
2023-02-02T03:09:33.722Z,16.40
2023-02-02T03:10:33.687Z,13.20
2023-02-02T03:11:33.663Z,13.60
2023-02-02T03:12:33.657Z,11.20
2023-02-02T03:13:33.646Z,13.60
2023-02-02T03:14:33.617Z,13.60
2023-02-02T03:15:33.652Z,18.30
2023-02-02T03:16:33.607Z,17.50
2023-02-02T03:17:33.599Z,8.10
2023-02-02T03:18:33.576Z,17.20
2023-02-02T03:19:33.590Z,13.40
2023-02-02T03:20:33.566Z,17.80
2023-02-02T03:21:33.548Z,11.00
2023-02-02T03:22:33.527Z,14.60
2023-02-02T03:23:33.510Z,15.00
2023-02-02T03:24:33.505Z,13.20
2023-02-02T03:25:33.476Z,16.30
2023-02-02T03:26:33.498Z,17.40
2023-02-02T03:27:33.454Z,15.60
2023-02-02T03:28:33.438Z,17.20
2023-02-02T03:29:33.449Z,17.10
2023-02-02T03:30:33.475Z,11.10
2023-02-02T03:31:33.585Z,11.30
2023-02-02T03:32:33.377Z,14.70
2023-02-02T03:33:33.383Z,11.30
2023-02-02T03:34:33.383Z,14.00
2023-02-02T03:35:33.365Z,11.40
2023-02-02T03:36:33.335Z,7.50
2023-02-02T03:37:33.345Z,10.10
2023-02-02T03:38:33.316Z,6.30
2023-02-02T03:39:33.314Z,4.90
2023-02-02T03:40:33.292Z,12.00
2023-02-02T03:41:33.266Z,10.20
2023-02-02T03:42:33.287Z,13.10
2023-02-02T03:43:33.260Z,10.20
2023-02-02T03:44:33.272Z,8.40
2023-02-02T03:45:33.229Z,8.60
2023-02-02T03:46:33.227Z,7.70
2023-02-02T03:47:33.186Z,10.40
2023-02-02T03:48:33.169Z,10.70
2023-02-02T03:49:33.191Z,15.30
2023-02-02T03:50:33.173Z,9.70
2023-02-02T03:51:33.156Z,11.10
2023-02-02T03:52:33.137Z,12.00
2023-02-02T03:53:33.110Z,13.40
2023-02-02T03:54:33.087Z,9.40
2023-02-02T03:55:33.089Z,8.80
2023-02-02T03:56:33.059Z,13.60
2023-02-02T03:57:33.065Z,10.30
2023-02-02T03:58:33.052Z,13.60
2023-02-02T03:59:33.060Z,9.80
2023-02-02T04:00:33.025Z,11.20
2023-02-02T04:01:33.067Z,10.00
2023-02-02T04:02:33.019Z,11.50
2023-02-02T04:03:33.004Z,11.20
2023-02-02T04:04:32.971Z,10.40
2023-02-02T04:05:32.987Z,10.90
2023-02-02T04:06:32.932Z,9.90
2023-02-02T04:07:32.942Z,8.30
2023-02-02T04:08:32.918Z,5.70
2023-02-02T04:09:32.928Z,12.40
2023-02-02T04:10:32.907Z,9.50
2023-02-02T04:11:32.896Z,9.70
2023-02-02T04:12:32.868Z,11.50
2023-02-02T04:13:32.846Z,6.50
2023-02-02T04:14:32.869Z,9.70
2023-02-02T04:15:32.863Z,7.50
2023-02-02T04:16:32.854Z,7.10
2023-02-02T04:17:32.816Z,10.20
2023-02-02T04:18:32.784Z,8.10
2023-02-02T04:19:32.800Z,11.10
2023-02-02T04:20:32.855Z,6.80
2023-02-02T04:21:32.902Z,7.40
2023-02-02T04:22:32.758Z,9.00
2023-02-02T04:23:32.749Z,7.10
2023-02-02T04:24:32.716Z,11.10
2023-02-02T04:25:32.711Z,10.20
2023-02-02T04:26:32.754Z,11.60
2023-02-02T04:27:32.695Z,8.90
2023-02-02T04:28:32.650Z,13.40
2023-02-02T04:29:32.670Z,5.80
2023-02-02T04:30:32.655Z,14.70
2023-02-02T04:31:32.611Z,8.70
2023-02-02T04:32:32.615Z,9.40
2023-02-02T04:33:32.610Z,9.50
2023-02-02T04:34:32.585Z,12.00
2023-02-02T04:35:32.577Z,9.20
2023-02-02T04:36:32.571Z,9.90
2023-02-02T04:37:32.569Z,11.30
2023-02-02T04:38:32.518Z,9.50
2023-02-02T04:39:32.519Z,5.90
2023-02-02T04:40:32.492Z,11.20
2023-02-02T04:41:32.479Z,12.80
2023-02-02T04:42:32.475Z,11.20
2023-02-02T04:43:32.451Z,10.40
2023-02-02T04:44:32.442Z,12.50
2023-02-02T04:45:32.465Z,11.00
2023-02-02T04:46:32.426Z,13.20
2023-02-02T04:47:32.407Z,10.30
2023-02-02T04:48:32.389Z,13.20
2023-02-02T04:49:32.382Z,11.70
2023-02-02T04:50:32.380Z,11.10
2023-02-02T04:51:32.353Z,9.90
2023-02-02T04:52:32.335Z,8.40
2023-02-02T04:53:32.338Z,11.10
2023-02-02T04:54:32.302Z,10.20
2023-02-02T04:55:32.299Z,10.00
2023-02-02T04:56:32.283Z,10.60
2023-02-02T04:57:32.265Z,9.20
2023-02-02T04:58:32.273Z,11.50
2023-02-02T04:59:32.268Z,9.20
2023-02-02T05:00:32.226Z,13.30
2023-02-02T05:01:32.246Z,15.70
2023-02-02T05:02:32.215Z,10.00
2023-02-02T05:03:32.198Z,7.40
2023-02-02T05:04:32.319Z,7.50
2023-02-02T05:05:32.183Z,15.20
2023-02-02T05:06:32.205Z,8.90
2023-02-02T05:07:32.161Z,8.80
2023-02-02T05:08:32.136Z,9.60
2023-02-02T05:09:32.111Z,8.60
2023-02-02T05:10:32.121Z,8.80
2023-02-02T05:11:32.093Z,8.80
2023-02-02T05:12:32.100Z,8.10
2023-02-02T05:13:32.071Z,10.70
2023-02-02T05:14:32.068Z,7.50
2023-02-02T05:15:32.056Z,13.00
2023-02-02T05:16:32.053Z,10.50
2023-02-02T05:17:32.041Z,9.40
2023-02-02T05:18:31.989Z,10.20
2023-02-02T05:19:32.001Z,10.00
2023-02-02T05:20:31.961Z,11.30
2023-02-02T05:21:31.975Z,9.90
2023-02-02T05:22:31.968Z,9.90
2023-02-02T05:23:31.942Z,6.90
2023-02-02T05:24:31.949Z,13.70
2023-02-02T05:25:31.899Z,10.90
2023-02-02T05:26:31.961Z,11.80
2023-02-02T05:27:31.895Z,10.80
2023-02-02T05:28:31.868Z,11.40
2023-02-02T05:29:31.860Z,10.40
2023-02-02T05:30:33.548Z,9.60
2023-02-02T05:31:31.890Z,7.90
2023-02-02T05:32:31.827Z,10.30
2023-02-02T05:33:31.819Z,14.10
2023-02-02T05:34:31.793Z,11.30
2023-02-02T05:35:31.780Z,12.30
2023-02-02T05:36:31.774Z,10.70
2023-02-02T05:37:31.747Z,10.00
2023-02-02T05:38:31.738Z,12.70
2023-02-02T05:39:31.719Z,14.00
2023-02-02T05:40:31.719Z,8.20
2023-02-02T05:41:31.694Z,14.80
2023-02-02T05:42:31.673Z,13.70
2023-02-02T05:43:31.719Z,11.00
2023-02-02T05:44:31.668Z,9.00
2023-02-02T05:45:31.637Z,12.20
2023-02-02T05:46:31.622Z,11.90
2023-02-02T05:47:31.625Z,11.80
2023-02-02T05:48:31.597Z,14.90
2023-02-02T05:49:31.597Z,10.10
2023-02-02T05:50:31.585Z,15.70
2023-02-02T05:51:31.595Z,13.10
2023-02-02T05:52:31.555Z,11.80
2023-02-02T05:53:31.536Z,11.70
2023-02-02T05:54:31.514Z,12.40
2023-02-02T05:55:31.522Z,10.50
2023-02-02T05:56:31.509Z,12.60
2023-02-02T05:57:31.510Z,17.20
2023-02-02T05:58:31.462Z,9.70
2023-02-02T05:59:31.454Z,10.60
2023-02-02T06:00:31.457Z,10.90
2023-02-02T06:01:31.451Z,17.50
2023-02-02T06:02:31.415Z,12.60
2023-02-02T06:03:31.593Z,17.00
2023-02-02T06:04:31.406Z,14.50
2023-02-02T06:05:31.409Z,15.10
2023-02-02T06:06:31.392Z,12.20
2023-02-02T06:07:31.356Z,9.90
2023-02-02T06:08:31.327Z,12.80
2023-02-02T06:09:31.341Z,11.00
2023-02-02T06:10:31.308Z,11.20
2023-02-02T06:11:31.299Z,13.40
2023-02-02T06:12:31.304Z,16.30
2023-02-02T06:13:31.271Z,13.70
2023-02-02T06:14:31.265Z,14.80
2023-02-02T06:15:31.300Z,13.10
2023-02-02T06:16:31.256Z,7.80
2023-02-02T06:17:31.235Z,11.40
2023-02-02T06:18:31.214Z,15.20
2023-02-02T06:19:31.209Z,11.50
2023-02-02T06:20:31.192Z,12.20
2023-02-02T06:21:31.195Z,7.40
2023-02-02T06:22:31.186Z,13.00
2023-02-02T06:23:31.138Z,16.10
2023-02-02T06:24:31.131Z,10.60
2023-02-02T06:25:31.129Z,12.60
2023-02-02T06:26:31.135Z,11.70
2023-02-02T06:27:31.102Z,5.90
2023-02-02T06:28:31.132Z,9.90
2023-02-02T06:29:31.072Z,12.90
2023-02-02T06:30:31.061Z,9.40
2023-02-02T06:31:31.132Z,7.10
2023-02-02T06:32:31.038Z,8.10
2023-02-02T06:33:31.009Z,13.60
2023-02-02T06:34:31.014Z,8.20
2023-02-02T06:35:31.003Z,11.70
2023-02-02T06:36:30.987Z,10.40
2023-02-02T06:37:30.973Z,16.00
2023-02-02T06:38:30.943Z,13.70
2023-02-02T06:39:30.946Z,5.40
2023-02-02T06:40:30.934Z,10.80
2023-02-02T06:41:30.896Z,12.60
2023-02-02T06:42:30.896Z,7.90
2023-02-02T06:43:30.891Z,11.90
2023-02-02T06:44:30.860Z,13.00
2023-02-02T06:45:30.873Z,8.60
2023-02-02T06:46:30.907Z,14.10
2023-02-02T06:47:30.830Z,11.90
2023-02-02T06:48:30.844Z,10.80
2023-02-02T06:49:30.807Z,11.70
2023-02-02T06:50:30.815Z,10.90
2023-02-02T06:51:30.771Z,12.20
2023-02-02T06:52:30.768Z,7.10
2023-02-02T06:53:30.801Z,10.80
2023-02-02T06:54:30.748Z,8.80
2023-02-02T06:55:30.751Z,10.50
2023-02-02T06:56:30.723Z,13.00
2023-02-02T06:57:30.696Z,9.20
2023-02-02T06:58:30.689Z,13.30
2023-02-02T06:59:30.664Z,13.10
2023-02-02T07:00:30.736Z,9.30
2023-02-02T07:01:30.675Z,6.60
2023-02-02T07:02:30.639Z,11.60
2023-02-02T07:03:30.626Z,9.50
2023-02-02T07:04:30.614Z,10.40
2023-02-02T07:05:31.156Z,9.10
2023-02-02T07:06:30.590Z,10.00
2023-02-02T07:07:30.574Z,13.10
2023-02-02T07:08:30.546Z,9.90
2023-02-02T07:09:30.536Z,8.30
2023-02-02T07:11:11.027Z,12.90
2023-02-02T07:11:30.598Z,12.90
2023-02-02T07:12:30.496Z,10.10
2023-02-02T07:13:30.503Z,10.20
2023-02-02T07:14:30.466Z,12.70
2023-02-02T07:15:30.461Z,12.40
2023-02-02T07:16:30.458Z,10.10
2023-02-02T07:17:30.450Z,11.50
2023-02-02T07:18:30.419Z,11.90
2023-02-02T07:19:30.420Z,15.50
2023-02-02T07:20:30.396Z,12.20
2023-02-02T07:21:30.417Z,18.10
2023-02-02T07:22:30.378Z,12.30
2023-02-02T07:23:30.348Z,9.50
2023-02-02T07:24:30.349Z,15.50
2023-02-02T07:25:30.338Z,12.10
2023-02-02T07:26:30.342Z,16.40
2023-02-02T07:27:30.303Z,11.60
2023-02-02T07:28:30.306Z,18.70
2023-02-02T07:29:30.294Z,13.30
2023-02-02T07:30:30.309Z,12.50
2023-02-02T07:31:30.373Z,11.20
2023-02-02T07:32:30.265Z,12.60
2023-02-02T07:33:30.235Z,7.90
2023-02-02T07:34:30.236Z,11.70
2023-02-02T07:35:30.195Z,12.00
2023-02-02T07:36:30.197Z,9.50
2023-02-02T07:37:30.164Z,16.00
2023-02-02T07:38:30.190Z,11.70
2023-02-02T07:39:30.144Z,12.30
2023-02-02T07:40:30.142Z,12.40
2023-02-02T07:41:30.118Z,12.70
2023-02-02T07:42:30.106Z,11.20
2023-02-02T07:43:30.084Z,12.30
2023-02-02T07:44:30.083Z,10.40
2023-02-02T07:45:30.076Z,11.80
2023-02-02T07:46:30.093Z,10.30
2023-02-02T07:47:30.039Z,10.30
2023-02-02T07:48:30.029Z,16.30
2023-02-02T07:49:30.014Z,11.40
2023-02-02T07:50:30.009Z,10.10
2023-02-02T07:51:29.976Z,12.70
2023-02-02T07:52:29.983Z,14.40
2023-02-02T07:53:29.967Z,9.80
2023-02-02T07:54:29.973Z,16.10
2023-02-02T07:55:30.250Z,13.60
2023-02-02T07:56:29.914Z,18.30
2023-02-02T07:57:29.910Z,13.10
2023-02-02T07:58:29.907Z,9.90
2023-02-02T07:59:32.211Z,12.30
2023-02-02T08:00:29.884Z,12.20
2023-02-02T08:01:29.884Z,11.90
2023-02-02T08:02:29.896Z,19.30
2023-02-02T08:03:29.819Z,12.00
2023-02-02T08:04:29.842Z,16.40
2023-02-02T08:05:29.806Z,12.70
2023-02-02T08:06:29.841Z,13.20
2023-02-02T08:07:29.784Z,18.90
2023-02-02T08:08:29.767Z,16.30
2023-02-02T08:09:29.744Z,17.90
2023-02-02T08:10:29.747Z,15.90
2023-02-02T08:11:29.730Z,16.40
2023-02-02T08:12:29.721Z,13.60
2023-02-02T08:13:29.711Z,15.30
2023-02-02T08:14:29.690Z,12.80
2023-02-02T08:15:29.686Z,15.10
2023-02-02T08:16:29.903Z,13.80
2023-02-02T08:17:29.637Z,14.40
2023-02-02T08:18:29.631Z,14.80
2023-02-02T08:19:29.638Z,14.60
2023-02-02T08:20:29.602Z,14.40
2023-02-02T08:21:29.614Z,14.60
2023-02-02T08:22:29.579Z,14.40
2023-02-02T08:23:29.584Z,11.60
2023-02-02T08:24:29.551Z,11.20
2023-02-02T08:25:29.551Z,14.40
2023-02-02T08:26:29.683Z,9.80
2023-02-02T08:27:29.505Z,11.10
2023-02-02T08:28:29.532Z,10.90
2023-02-02T08:29:29.485Z,12.80
2023-02-02T08:30:29.475Z,12.40
2023-02-02T08:31:29.520Z,11.80
2023-02-02T08:32:29.467Z,11.90
2023-02-02T08:33:29.435Z,13.30
2023-02-02T08:34:29.416Z,18.70
2023-02-02T08:35:29.395Z,13.70
2023-02-02T08:36:29.433Z,8.70
2023-02-02T08:37:29.396Z,18.70
2023-02-02T08:38:29.433Z,13.10
2023-02-02T08:39:29.345Z,12.90
2023-02-02T08:40:29.411Z,14.90
2023-02-02T08:41:29.389Z,13.70
2023-02-02T08:42:29.337Z,10.90
2023-02-02T08:43:29.335Z,9.60
2023-02-02T08:44:45.884Z,11.20
2023-02-02T08:46:08.130Z,11.60
2023-02-02T08:46:29.405Z,12.60
2023-02-02T08:47:29.248Z,13.50
2023-02-02T08:48:29.240Z,13.20
2023-02-02T08:49:29.224Z,13.30
2023-02-02T08:50:29.233Z,12.10
2023-02-02T08:51:29.196Z,12.70
2023-02-02T08:52:29.179Z,10.60
2023-02-02T08:53:29.198Z,9.60
2023-02-02T08:54:29.159Z,11.20
2023-02-02T08:55:29.133Z,14.00
2023-02-02T08:56:29.175Z,14.40
2023-02-02T08:57:29.124Z,11.30
2023-02-02T08:58:29.132Z,11.30
2023-02-02T08:59:29.098Z,15.70
2023-02-02T09:00:29.142Z,13.80
2023-02-02T09:01:29.108Z,11.90
2023-02-02T09:02:29.069Z,15.10
2023-02-02T09:03:29.042Z,12.90
2023-02-02T09:04:29.030Z,12.80
2023-02-02T09:05:29.019Z,9.50
2023-02-02T09:06:29.000Z,10.80
2023-02-02T09:07:28.975Z,6.10
2023-02-02T09:08:29.099Z,5.70
2023-02-02T09:09:28.955Z,11.30
2023-02-02T09:10:28.983Z,9.00
2023-02-02T09:11:28.941Z,10.60
2023-02-02T09:12:28.941Z,10.70
2023-02-02T09:13:28.903Z,9.70
2023-02-02T09:14:28.923Z,9.10
2023-02-02T09:15:28.913Z,16.10
2023-02-02T09:16:28.921Z,8.30
2023-02-02T09:17:28.872Z,8.10
2023-02-02T09:18:28.864Z,9.50
2023-02-02T09:19:28.861Z,8.40
2023-02-02T09:20:28.828Z,10.30
2023-02-02T09:21:28.807Z,12.20
2023-02-02T09:22:29.034Z,10.40
2023-02-02T09:23:28.775Z,10.50
2023-02-02T09:24:28.780Z,12.00
2023-02-02T09:25:28.778Z,9.50
2023-02-02T09:26:28.843Z,8.70
2023-02-02T09:27:28.719Z,9.50
2023-02-02T09:28:28.698Z,11.10
2023-02-02T09:29:28.711Z,15.10
2023-02-02T09:30:28.701Z,11.10
2023-02-02T09:31:28.713Z,13.30
2023-02-02T09:32:28.675Z,12.10
2023-02-02T09:33:28.636Z,12.30
2023-02-02T09:34:28.645Z,12.90
2023-02-02T09:35:28.634Z,8.60
2023-02-02T09:36:28.650Z,11.40
2023-02-02T09:37:28.593Z,14.30
2023-02-02T09:38:28.583Z,8.70
2023-02-02T09:39:28.587Z,8.50
2023-02-02T09:40:28.533Z,17.60
2023-02-02T09:41:28.557Z,11.70
2023-02-02T09:42:28.531Z,8.50
2023-02-02T09:43:28.494Z,12.10
2023-02-02T09:44:28.512Z,10.40
2023-02-02T09:45:28.487Z,13.40
2023-02-02T09:46:28.460Z,9.30
2023-02-02T09:47:28.530Z,12.30
2023-02-02T09:48:28.430Z,14.80
2023-02-02T09:49:28.411Z,8.50
2023-02-02T09:50:28.416Z,13.40
2023-02-02T09:51:28.397Z,10.30
2023-02-02T09:52:28.396Z,7.60
2023-02-02T09:53:28.384Z,6.90
2023-02-02T09:54:28.372Z,7.50
2023-02-02T09:55:28.359Z,15.40
2023-02-02T09:56:28.360Z,11.00
2023-02-02T09:57:28.347Z,11.80
2023-02-02T09:58:28.336Z,10.70
2023-02-02T09:59:28.368Z,11.00
2023-02-02T10:00:28.327Z,11.10
2023-02-02T10:01:28.336Z,7.30
2023-02-02T10:02:28.262Z,13.30
2023-02-02T10:03:28.349Z,8.00
2023-02-02T10:04:28.245Z,11.50
2023-02-02T10:05:28.206Z,7.80
2023-02-02T10:06:28.204Z,6.20
2023-02-02T10:07:28.178Z,7.60
2023-02-02T10:08:34.661Z,11.30
2023-02-02T10:09:28.181Z,8.60
2023-02-02T10:10:28.169Z,10.40
2023-02-02T10:11:28.147Z,9.80
2023-02-02T10:12:28.142Z,10.40
2023-02-02T10:13:28.102Z,8.80
2023-02-02T10:14:28.145Z,8.00
2023-02-02T10:15:28.250Z,8.90
2023-02-02T10:16:28.051Z,6.60
2023-02-02T10:17:28.058Z,11.40
2023-02-02T10:18:28.074Z,10.60
2023-02-02T10:19:28.023Z,10.10
2023-02-02T10:20:28.307Z,8.80
2023-02-02T10:21:28.008Z,11.00
2023-02-02T10:22:27.982Z,6.70
2023-02-02T10:23:27.958Z,12.90
2023-02-02T10:24:27.979Z,9.20
2023-02-02T10:25:27.944Z,9.10
2023-02-02T10:26:27.956Z,7.00
2023-02-02T10:27:27.916Z,9.40
2023-02-02T10:28:27.897Z,11.80
2023-02-02T10:29:29.295Z,7.50
2023-02-02T10:30:28.019Z,10.30
2023-02-02T10:31:27.939Z,9.70
2023-02-02T10:32:27.860Z,10.00
2023-02-02T10:33:27.817Z,5.10
2023-02-02T10:34:27.836Z,7.80
2023-02-02T10:35:27.828Z,7.00
2023-02-02T10:36:27.818Z,12.50
2023-02-02T10:37:27.771Z,9.20
2023-02-02T10:38:27.778Z,12.00
2023-02-02T10:39:27.743Z,7.20
2023-02-02T10:40:28.103Z,5.80
2023-02-02T10:41:27.725Z,6.50
2023-02-02T10:42:27.754Z,5.70
2023-02-02T10:43:27.698Z,7.40
2023-02-02T10:44:27.695Z,5.70
2023-02-02T10:45:27.798Z,6.00
2023-02-02T10:46:27.776Z,11.00
2023-02-02T10:47:27.670Z,8.60
2023-02-02T10:48:27.720Z,10.30
2023-02-02T10:49:27.626Z,8.00
2023-02-02T10:50:28.246Z,7.40
2023-02-02T10:51:27.638Z,7.40
2023-02-02T10:52:27.636Z,8.70
2023-02-02T10:53:27.618Z,7.90
2023-02-02T10:54:27.589Z,8.80
2023-02-02T10:55:27.587Z,9.10
2023-02-02T10:56:27.691Z,9.00
2023-02-02T10:57:27.522Z,5.20
2023-02-02T10:58:27.586Z,8.70
2023-02-02T10:59:27.486Z,12.20
2023-02-02T11:00:28.000Z,9.40
2023-02-02T11:01:27.532Z,7.60
2023-02-02T11:02:27.522Z,7.60
2023-02-02T11:03:27.479Z,10.20
2023-02-02T11:04:27.446Z,6.30
2023-02-02T11:05:27.444Z,5.40
2023-02-02T11:06:27.466Z,6.30
2023-02-02T11:07:27.401Z,7.80
2023-02-02T11:08:27.401Z,8.20
2023-02-02T11:09:27.392Z,8.20
2023-02-02T11:10:27.664Z,7.10
2023-02-02T11:11:27.330Z,9.20
2023-02-02T11:12:27.353Z,8.70
2023-02-02T11:13:27.337Z,8.40
2023-02-02T11:14:27.299Z,6.80
2023-02-02T11:15:27.280Z,6.60
2023-02-02T11:16:38.877Z,7.80
2023-02-02T11:17:27.269Z,9.40
2023-02-02T11:18:27.390Z,7.80
2023-02-02T11:19:27.212Z,7.40
2023-02-02T11:20:27.362Z,9.60
2023-02-02T11:21:27.209Z,10.10
2023-02-02T11:22:27.190Z,6.70
2023-02-02T11:23:27.180Z,7.00
2023-02-02T11:24:27.159Z,9.20
2023-02-02T11:25:27.158Z,7.50
2023-02-02T11:26:27.146Z,6.10
2023-02-02T11:27:27.113Z,6.80
2023-02-02T11:28:27.144Z,6.20
2023-02-02T11:29:27.076Z,9.80
2023-02-02T11:30:27.238Z,8.30
2023-02-02T11:31:27.207Z,6.30
2023-02-02T11:32:27.048Z,7.60
2023-02-02T11:33:27.038Z,7.80
2023-02-02T11:34:27.041Z,5.60
2023-02-02T11:35:27.036Z,5.60
2023-02-02T11:36:27.033Z,5.10
2023-02-02T11:37:26.974Z,9.60
2023-02-02T11:38:26.982Z,8.30
2023-02-02T11:39:26.993Z,11.80
2023-02-02T11:40:27.201Z,7.70
2023-02-02T11:41:26.946Z,6.20
2023-02-02T11:42:26.935Z,6.30
2023-02-02T11:43:26.912Z,8.40
2023-02-02T11:44:26.886Z,7.20
2023-02-02T11:45:26.887Z,4.90
2023-02-02T11:46:26.923Z,8.10
2023-02-02T11:47:26.853Z,6.60
2023-02-02T11:48:26.926Z,7.00
2023-02-02T11:49:26.829Z,7.20
2023-02-02T11:50:27.071Z,5.70
2023-02-02T11:51:26.870Z,4.60
2023-02-02T11:52:26.798Z,6.10
2023-02-02T11:53:26.795Z,6.40
2023-02-02T11:54:26.747Z,5.40
2023-02-02T11:55:26.867Z,8.60
2023-02-02T11:56:26.746Z,7.00
2023-02-02T11:57:26.705Z,8.20
2023-02-02T11:58:26.706Z,8.80
2023-02-02T11:59:26.692Z,9.70
2023-02-02T12:00:27.236Z,10.40
2023-02-02T12:01:26.748Z,7.40
2023-02-02T12:02:26.651Z,6.20
2023-02-02T12:03:26.627Z,8.30
2023-02-02T12:04:26.798Z,6.30
2023-02-02T12:05:26.615Z,10.70
2023-02-02T12:06:26.601Z,7.30
2023-02-02T12:07:26.615Z,10.90
2023-02-02T12:08:26.570Z,6.60
2023-02-02T12:09:26.546Z,7.90
2023-02-02T12:10:26.842Z,8.30
2023-02-02T12:11:26.526Z,8.90
2023-02-02T12:12:26.511Z,5.60
2023-02-02T12:13:26.502Z,8.90
2023-02-02T12:14:26.482Z,4.90
2023-02-02T12:15:26.480Z,8.10
2023-02-02T12:16:26.516Z,10.80
2023-02-02T12:17:26.457Z,7.10
2023-02-02T12:18:26.438Z,5.50
2023-02-02T12:19:26.430Z,6.20
2023-02-02T12:20:26.805Z,2.80
2023-02-02T12:21:26.402Z,7.80
2023-02-02T12:22:26.404Z,7.70
2023-02-02T12:23:26.405Z,7.80
2023-02-02T12:24:26.339Z,7.40
2023-02-02T12:25:26.945Z,8.60
2023-02-02T12:26:26.350Z,9.60
2023-02-02T12:27:26.322Z,9.30
2023-02-02T12:28:26.312Z,8.40
2023-02-02T12:29:26.290Z,5.50
2023-02-02T12:30:26.672Z,9.10
2023-02-02T12:31:26.333Z,10.80
2023-02-02T12:32:26.244Z,9.00
2023-02-02T12:33:26.232Z,8.40
2023-02-02T12:34:26.216Z,6.30
2023-02-02T12:35:26.285Z,9.10
2023-02-02T12:36:26.192Z,10.80
2023-02-02T12:37:26.200Z,6.40
2023-02-02T12:38:26.196Z,8.00
2023-02-02T12:39:26.174Z,7.20
2023-02-02T12:40:26.493Z,6.90
2023-02-02T12:41:26.120Z,10.50
2023-02-02T12:42:26.137Z,9.40
2023-02-02T12:43:26.120Z,5.10
2023-02-02T12:44:26.093Z,5.60
2023-02-02T12:45:26.134Z,8.80
2023-02-02T12:46:26.064Z,10.40
2023-02-02T12:47:26.049Z,6.00
2023-02-02T12:48:26.055Z,5.20
2023-02-02T12:49:26.036Z,7.60
2023-02-02T12:50:26.322Z,5.70
2023-02-02T12:51:26.023Z,5.40
2023-02-02T12:52:25.988Z,6.40
2023-02-02T12:53:25.973Z,5.50
2023-02-02T12:54:34.761Z,6.10
2023-02-02T12:55:25.960Z,7.40
2023-02-02T12:56:25.967Z,4.60
2023-02-02T12:57:25.931Z,8.20
2023-02-02T12:58:25.907Z,7.30
2023-02-02T12:59:25.883Z,8.20
2023-02-02T13:00:26.291Z,8.60
2023-02-02T13:01:25.944Z,7.60